logo
Search for airport 
image banner adimage banner adimage banner ad
image banner ad

EPNT - Nowy Targ

Located in , Poland

ICAO - EPNT, IATA - QWS

Data provided by Airmate  

General information

Coordinates: N49°27'45" E20°3'1"
Elevation is 2060 feet MSL.
Magnetic variation is 4.0000° East
View others Airports in Lesser Poland

Operational data

Special qualification required
Current time UTC:
Current local time:
Weather at : LZTT - Poprad-Tatry ( 45 km )
METAR: LZTT 291630Z 26010KT CAVOK 04/M09 Q1018 NOSIG
TAF: TAF LZTT 291115Z 2912/3012 27013KT CAVOK BECMG 2915/2917 25006KT TEMPO 3010/3012 9999 -SNRA BKN030
View NOTAMs / SUP AIP / TFR affecting this airport [VIEW]
Communications frequencies: [VIEW]

Runways:

RWY identifierQFULength (ft)Width (ft)SurfaceLDA (ft)
0219°2231328GRASS2231
20199°2231328GRASS2231
12122°5512328GRASS5512
30302°5512328GRASS5512

Airport contact information

Address: Poland

Other aviation service providers

Aviation club (not for profit)

Aeroklub Nowy Targ

Aeroklub Nowy Targ
aeroklub@nowytarg.pl+48182646616
+48609153960

Satellite view of EPNT